createdAt,value
2022-10-11T00:00:46.258Z,101077.00
2022-10-11T00:03:14.924Z,101078.00
2022-10-11T00:05:44.308Z,101081.00
2022-10-11T00:08:13.883Z,101084.00
2022-10-11T00:10:42.681Z,101066.00
2022-10-11T00:13:10.542Z,101072.00
2022-10-11T00:15:41.069Z,101088.00
2022-10-11T00:18:08.963Z,101094.00
2022-10-11T00:20:36.610Z,101054.00
2022-10-11T00:23:04.305Z,101052.00
2022-10-11T00:25:32.173Z,101054.00
2022-10-11T00:28:00.182Z,101063.00
2022-10-11T00:30:27.984Z,101050.00
2022-10-11T00:32:56.099Z,101105.00
2022-10-11T00:35:23.832Z,101110.00
2022-10-11T00:37:51.539Z,101123.00
2022-10-11T00:40:20.831Z,101117.00
2022-10-11T00:42:48.538Z,101114.00
2022-10-11T00:45:31.302Z,101125.00
2022-10-11T00:48:05.595Z,101122.00
2022-10-11T00:50:34.924Z,101123.00
2022-10-11T00:53:06.865Z,101131.00
2022-10-11T00:55:50.234Z,101121.00
2022-10-11T00:58:18.389Z,101116.00
2022-10-11T01:00:46.281Z,101121.00
2022-10-11T01:03:14.114Z,101126.00
2022-10-11T01:05:42.366Z,101127.00
2022-10-11T01:08:10.254Z,101133.00
2022-10-11T01:10:38.289Z,101128.00
2022-10-11T01:13:16.067Z,101139.00
2022-10-11T01:16:16.225Z,101140.00
2022-10-11T01:18:51.354Z,101138.00
2022-10-11T01:21:34.259Z,101144.00
2022-10-11T01:24:26.871Z,101140.00
2022-10-11T01:27:07.151Z,101155.00
2022-10-11T01:29:45.475Z,101154.00
2022-10-11T01:32:19.191Z,101147.00
2022-10-11T01:35:11.141Z,101146.00
2022-10-11T01:37:43.716Z,101150.00
2022-10-11T01:40:11.771Z,101149.00
2022-10-11T01:42:40.836Z,101147.00
2022-10-11T01:45:19.466Z,101148.00
2022-10-11T01:47:47.472Z,101144.00
2022-10-11T01:50:40.133Z,101152.00
2022-10-11T01:53:57.372Z,101150.00
2022-10-11T01:56:46.226Z,101152.00
2022-10-11T01:59:45.496Z,101152.00
2022-10-11T02:02:18.999Z,101158.00
2022-10-11T02:04:56.217Z,101164.00
2022-10-11T02:07:38.508Z,101162.00
2022-10-11T02:10:19.587Z,101168.00
2022-10-11T02:12:58.483Z,101158.00
2022-10-11T02:15:28.071Z,101159.00
2022-10-11T02:17:59.040Z,101170.00
2022-10-11T02:20:27.631Z,101157.00
2022-10-11T02:23:02.356Z,101161.00
2022-10-11T02:25:32.921Z,101164.00
2022-10-11T02:28:03.916Z,101166.00
2022-10-11T02:30:31.814Z,101173.00
2022-10-11T02:33:00.903Z,101178.00
2022-10-11T02:35:30.736Z,101168.00
2022-10-11T02:38:10.483Z,101171.00
2022-10-11T02:40:40.998Z,101175.00
2022-10-11T02:43:33.606Z,101173.00
2022-10-11T02:46:02.845Z,101189.00
2022-10-11T02:48:32.224Z,101188.00
2022-10-11T02:51:00.468Z,101186.00
2022-10-11T02:53:29.001Z,101136.00
2022-10-11T02:55:57.011Z,101136.00
2022-10-11T02:58:25.796Z,101119.00
2022-10-11T03:00:53.921Z,101145.00
2022-10-11T03:03:21.734Z,101195.00
2022-10-11T03:05:49.609Z,101195.00
2022-10-11T03:08:17.838Z,101198.00
2022-10-11T03:10:45.722Z,101205.00
2022-10-11T03:13:17.833Z,101210.00
2022-10-11T03:16:00.717Z,101203.00
2022-10-11T03:18:31.363Z,101219.00
2022-10-11T03:20:59.219Z,101218.00
2022-10-11T03:23:27.255Z,101210.00
2022-10-11T03:25:55.012Z,101219.00
2022-10-11T03:28:22.723Z,101216.00
2022-10-11T03:30:51.553Z,101223.00
2022-10-11T03:33:20.044Z,101221.00
2022-10-11T03:35:48.999Z,101221.00
2022-10-11T03:38:20.419Z,101222.00
2022-10-11T03:40:48.682Z,101228.00
2022-10-11T03:43:16.715Z,101228.00
2022-10-11T03:45:44.756Z,101238.00
2022-10-11T03:48:13.029Z,101229.00
2022-10-11T03:50:40.830Z,101240.00
2022-10-11T03:53:08.557Z,101238.00
2022-10-11T03:55:38.141Z,101248.00
2022-10-11T03:58:06.113Z,101243.00
2022-10-11T04:00:34.937Z,101244.00
2022-10-11T04:03:05.384Z,101245.00
2022-10-11T04:05:33.234Z,101250.00
2022-10-11T04:08:01.077Z,101257.00
2022-10-11T04:10:28.970Z,101248.00
2022-10-11T04:12:56.776Z,101251.00
2022-10-11T04:15:24.904Z,101262.00
2022-10-11T04:17:52.725Z,101254.00
2022-10-11T04:20:20.584Z,101259.00
2022-10-11T04:22:48.243Z,101257.00
2022-10-11T04:25:16.171Z,101271.00
2022-10-11T04:27:43.888Z,101264.00
2022-10-11T04:30:12.428Z,101272.00
2022-10-11T04:32:40.226Z,101273.00
2022-10-11T04:35:08.510Z,101269.00
2022-10-11T04:37:36.424Z,101274.00
2022-10-11T04:40:05.478Z,101271.00
2022-10-11T04:42:33.437Z,101279.00
2022-10-11T04:45:01.285Z,101288.00
2022-10-11T04:47:29.003Z,101285.00
2022-10-11T04:49:56.838Z,101285.00
2022-10-11T04:52:26.052Z,101293.00
2022-10-11T04:54:54.053Z,101298.00
2022-10-11T04:57:21.924Z,101292.00
2022-10-11T04:59:50.448Z,101298.00
2022-10-11T05:02:18.780Z,101297.00
2022-10-11T05:04:46.798Z,101313.00
2022-10-11T05:07:14.609Z,101305.00
2022-10-11T05:09:42.614Z,101313.00
2022-10-11T05:12:10.223Z,101310.00
2022-10-11T05:14:37.981Z,101314.00
2022-10-11T05:17:05.739Z,101311.00
2022-10-11T05:19:33.529Z,101311.00
2022-10-11T05:22:01.353Z,101311.00
2022-10-11T05:24:29.150Z,101321.00
2022-10-11T05:26:59.811Z,101317.00
2022-10-11T05:29:31.153Z,101322.00
2022-10-11T05:31:59.039Z,101321.00
2022-10-11T05:34:27.065Z,101325.00
2022-10-11T05:36:56.640Z,101329.00
2022-10-11T05:39:24.592Z,101332.00
2022-10-11T05:41:52.487Z,101340.00
2022-10-11T05:44:23.103Z,101339.00
2022-10-11T05:46:50.989Z,101338.00
2022-10-11T05:49:19.009Z,101341.00
2022-10-11T05:51:47.177Z,101343.00
2022-10-11T05:54:14.916Z,101350.00
2022-10-11T05:56:42.683Z,101348.00
2022-10-11T05:59:10.525Z,101349.00
2022-10-11T06:01:38.345Z,101355.00
2022-10-11T06:04:06.348Z,101356.00
2022-10-11T06:06:34.455Z,101358.00
2022-10-11T06:09:02.505Z,101359.00
2022-10-11T06:11:30.343Z,101361.00
2022-10-11T06:13:58.732Z,101364.00
2022-10-11T06:16:28.158Z,101369.00
2022-10-11T06:18:56.859Z,101374.00
2022-10-11T06:21:25.521Z,101371.00
2022-10-11T06:23:59.912Z,101376.00
2022-10-11T06:26:29.281Z,101384.00
2022-10-11T06:28:57.379Z,101378.00
2022-10-11T06:31:25.937Z,101381.00
2022-10-11T06:33:53.875Z,101378.00
2022-10-11T06:36:21.607Z,101387.00
2022-10-11T06:38:52.969Z,101397.00
2022-10-11T06:41:25.083Z,101404.00
2022-10-11T06:43:53.262Z,101397.00
2022-10-11T06:46:23.016Z,101402.00
2022-10-11T06:48:51.934Z,101395.00
2022-10-11T06:51:21.533Z,101405.00
2022-10-11T06:53:55.645Z,101407.00
2022-10-11T06:56:23.835Z,101403.00
2022-10-11T06:58:51.608Z,101407.00
2022-10-11T07:01:21.672Z,101408.00
2022-10-11T07:03:50.153Z,101415.00
2022-10-11T07:06:23.635Z,101419.00
2022-10-11T07:08:51.809Z,101421.00
2022-10-11T07:11:22.544Z,101422.00
2022-10-11T07:13:52.362Z,101431.00
2022-10-11T07:16:21.241Z,101436.00
2022-10-11T07:18:55.868Z,101441.00
2022-10-11T07:21:27.334Z,101455.00
2022-10-11T07:23:55.353Z,101456.00
2022-10-11T07:26:23.215Z,101462.00
2022-10-11T07:28:51.105Z,101458.00
2022-10-11T07:31:22.090Z,101460.00
2022-10-11T07:33:49.917Z,101461.00
2022-10-11T07:36:17.819Z,101464.00
2022-10-11T07:38:47.599Z,101459.00
2022-10-11T07:41:15.449Z,101466.00
2022-10-11T07:43:43.866Z,101477.00
2022-10-11T07:46:11.828Z,101480.00
2022-10-11T07:48:39.860Z,101466.00
2022-10-11T07:51:16.664Z,101472.00
2022-10-11T07:53:48.952Z,101470.00
2022-10-11T07:56:25.483Z,101479.00
2022-10-11T07:58:55.408Z,101474.00
2022-10-11T08:01:23.434Z,101480.00
2022-10-11T08:03:51.742Z,101486.00
2022-10-11T08:06:23.214Z,101486.00
2022-10-11T08:08:50.805Z,101487.00
2022-10-11T08:11:30.823Z,101488.00
2022-10-11T08:13:59.600Z,101485.00
2022-10-11T08:16:27.760Z,101481.00
2022-10-11T08:18:57.288Z,101485.00
2022-10-11T08:21:27.081Z,101484.00
2022-10-11T08:23:54.911Z,101482.00
2022-10-11T08:26:22.854Z,101483.00
2022-10-11T08:28:50.843Z,101489.00
2022-10-11T08:31:18.773Z,101484.00
2022-10-11T08:33:46.702Z,101487.00
2022-10-11T08:36:14.636Z,101491.00
2022-10-11T08:38:42.541Z,101486.00
2022-10-11T08:41:23.281Z,101493.00
2022-10-11T08:44:13.803Z,101492.00
2022-10-11T08:46:46.096Z,101497.00
2022-10-11T08:49:15.744Z,101507.00
2022-10-11T08:51:50.513Z,101501.00
2022-10-11T08:54:43.503Z,101506.00
2022-10-11T08:57:16.010Z,101513.00
2022-10-11T09:00:04.919Z,101510.00
2022-10-11T09:03:06.298Z,101519.00
2022-10-11T09:05:34.919Z,101517.00
2022-10-11T09:08:50.149Z,101514.00
2022-10-11T09:11:38.134Z,101525.00
2022-10-11T09:14:23.906Z,101525.00
2022-10-11T09:17:17.763Z,101529.00
2022-10-11T09:20:06.514Z,101539.00
2022-10-11T09:22:43.467Z,101533.00
2022-10-11T09:25:25.226Z,101540.00
2022-10-11T09:28:12.148Z,101545.00
2022-10-11T09:30:49.362Z,101536.00
2022-10-11T09:33:21.014Z,101542.00
2022-10-11T09:35:51.569Z,101542.00
2022-10-11T09:38:19.342Z,101549.00
2022-10-11T09:41:14.147Z,101550.00
2022-10-11T09:43:45.041Z,101553.00
2022-10-11T09:46:32.785Z,101548.00
2022-10-11T09:49:08.128Z,101552.00
2022-10-11T09:51:35.964Z,101552.00
2022-10-11T09:54:06.000Z,101547.00
2022-10-11T09:56:35.189Z,101549.00
2022-10-11T09:59:29.833Z,101559.00
2022-10-11T10:02:13.746Z,101562.00
2022-10-11T10:05:08.492Z,101561.00
2022-10-11T10:07:38.779Z,101556.00
2022-10-11T10:10:28.185Z,101563.00
2022-10-11T10:13:07.256Z,101563.00
2022-10-11T10:15:36.911Z,101568.00
2022-10-11T10:18:06.794Z,101567.00
2022-10-11T10:20:36.018Z,101574.00
2022-10-11T10:23:19.472Z,101576.00
2022-10-11T10:25:51.318Z,101569.00
2022-10-11T10:28:24.154Z,101575.00
2022-10-11T10:30:57.985Z,101569.00
2022-10-11T10:33:27.789Z,101566.00
2022-10-11T10:36:06.214Z,101566.00
2022-10-11T10:38:38.009Z,101581.00
2022-10-11T10:41:14.423Z,101568.00
2022-10-11T10:43:45.295Z,101574.00
2022-10-11T10:46:46.982Z,101580.00
2022-10-11T10:49:53.729Z,101575.00
2022-10-11T10:52:46.632Z,101570.00
2022-10-11T10:55:38.269Z,101572.00
2022-10-11T10:58:27.110Z,101574.00
2022-10-11T11:01:31.453Z,101570.00
2022-10-11T11:04:23.830Z,101568.00
2022-10-11T11:07:00.496Z,101571.00
2022-10-11T11:10:06.202Z,101571.00
2022-10-11T11:12:39.933Z,101568.00
2022-10-11T11:15:32.578Z,101558.00
2022-10-11T11:18:46.250Z,101566.00
2022-10-11T11:21:41.815Z,101558.00
2022-10-11T11:24:40.372Z,101559.00
2022-10-11T11:27:35.583Z,101561.00
2022-10-11T11:30:10.932Z,101562.00
2022-10-11T11:33:03.416Z,101562.00
2022-10-11T11:35:53.142Z,101559.00
2022-10-11T11:38:47.905Z,101557.00
2022-10-11T11:41:24.724Z,101561.00
2022-10-11T11:44:06.713Z,101564.00
2022-10-11T11:47:03.498Z,101563.00
2022-10-11T11:49:40.215Z,101564.00
2022-10-11T11:52:13.893Z,101562.00
2022-10-11T11:54:50.799Z,101557.00
2022-10-11T11:57:53.716Z,101559.00
2022-10-11T12:00:31.583Z,101555.00
2022-10-11T12:03:03.689Z,101549.00
2022-10-11T12:05:37.436Z,101551.00
2022-10-11T12:08:28.061Z,101550.00
2022-10-11T12:10:59.923Z,101542.00
2022-10-11T12:13:41.122Z,101545.00
2022-10-11T12:16:10.405Z,101541.00
2022-10-11T12:18:50.797Z,101540.00
2022-10-11T12:21:42.311Z,101543.00
2022-10-11T12:24:23.195Z,101539.00
2022-10-11T12:26:55.687Z,101558.00
2022-10-11T12:29:29.197Z,101548.00
2022-10-11T12:32:01.106Z,101554.00
2022-10-11T12:34:36.952Z,101544.00
2022-10-11T12:37:20.328Z,101540.00
2022-10-11T12:39:54.903Z,101540.00
2022-10-11T12:42:42.919Z,101535.00
2022-10-11T12:45:13.815Z,101538.00
2022-10-11T12:47:47.455Z,101543.00
2022-10-11T12:50:29.328Z,101538.00
2022-10-11T12:53:38.339Z,101541.00
2022-10-11T12:56:26.787Z,101537.00
2022-10-11T12:59:03.194Z,101540.00
2022-10-11T13:01:37.822Z,101543.00
2022-10-11T13:04:11.295Z,101532.00
2022-10-11T13:06:50.790Z,101533.00
2022-10-11T13:09:27.466Z,101531.00
2022-10-11T13:12:05.234Z,101526.00
2022-10-11T13:14:37.378Z,101527.00
2022-10-11T13:17:07.783Z,101532.00
2022-10-11T13:19:37.758Z,101528.00
2022-10-11T13:22:16.141Z,101532.00
2022-10-11T13:24:44.260Z,101532.00
2022-10-11T13:27:21.711Z,101537.00
2022-10-11T13:29:50.684Z,101529.00
2022-10-11T13:32:27.333Z,101529.00
2022-10-11T13:35:01.631Z,101531.00
2022-10-11T13:37:30.757Z,101532.00
2022-10-11T13:39:58.943Z,101523.00
2022-10-11T13:42:31.091Z,101522.00
2022-10-11T13:44:59.719Z,101524.00
2022-10-11T13:47:30.380Z,101527.00
2022-10-11T13:50:33.646Z,101530.00
2022-10-11T13:53:05.524Z,101531.00
2022-10-11T13:55:35.544Z,101533.00
2022-10-11T13:58:18.775Z,101521.00
2022-10-11T14:01:01.712Z,101520.00
2022-10-11T14:03:48.038Z,101524.00
2022-10-11T14:06:19.321Z,101520.00
2022-10-11T14:08:50.525Z,101515.00
2022-10-11T14:11:36.704Z,101515.00
2022-10-11T14:14:49.795Z,101521.00
2022-10-11T14:17:20.623Z,101506.00
2022-10-11T14:19:49.236Z,101517.00
2022-10-11T14:22:18.359Z,101512.00
2022-10-11T14:24:49.331Z,101518.00
2022-10-11T14:27:23.288Z,101515.00
2022-10-11T14:30:06.396Z,101518.00
2022-10-11T14:32:40.029Z,101513.00
2022-10-11T14:35:14.554Z,101513.00
2022-10-11T14:37:42.513Z,101517.00
2022-10-11T14:40:19.621Z,101525.00
2022-10-11T14:42:47.471Z,101521.00
2022-10-11T14:45:15.575Z,101522.00
2022-10-11T14:47:43.675Z,101521.00
2022-10-11T14:50:28.413Z,101528.00
2022-10-11T14:52:56.696Z,101530.00
2022-10-11T14:55:24.876Z,101524.00
2022-10-11T14:57:52.706Z,101517.00
2022-10-11T15:00:26.313Z,101520.00
2022-10-11T15:02:54.448Z,101520.00
2022-10-11T15:05:23.330Z,101523.00
2022-10-11T15:07:51.655Z,101525.00
2022-10-11T15:10:25.381Z,101528.00
2022-10-11T15:12:54.059Z,101528.00
2022-10-11T15:15:24.172Z,101525.00
2022-10-11T15:17:57.503Z,101529.00
2022-10-11T15:20:30.445Z,101523.00
2022-10-11T15:22:58.923Z,101516.00
2022-10-11T15:25:27.912Z,101523.00
2022-10-11T15:27:56.169Z,101512.00
2022-10-11T15:30:34.828Z,101517.00
2022-10-11T15:33:04.970Z,101521.00
2022-10-11T15:35:32.774Z,101518.00
2022-10-11T15:38:01.050Z,101511.00
2022-10-11T15:40:35.892Z,101512.00
2022-10-11T15:43:04.311Z,101516.00
2022-10-11T15:45:32.385Z,101524.00
2022-10-11T15:48:00.381Z,101520.00
2022-10-11T15:50:40.109Z,101518.00
2022-10-11T15:53:14.886Z,101513.00
2022-10-11T15:55:44.741Z,101516.00
2022-10-11T15:58:16.607Z,101508.00
2022-10-11T16:00:46.088Z,101513.00
2022-10-11T16:03:15.575Z,101513.00
2022-10-11T16:05:44.094Z,101514.00
2022-10-11T16:08:12.494Z,101510.00
2022-10-11T16:10:41.581Z,101508.00
2022-10-11T16:13:10.118Z,101518.00
2022-10-11T16:15:39.819Z,101513.00
2022-10-11T16:18:09.351Z,101517.00
2022-10-11T16:20:41.469Z,101524.00
2022-10-11T16:23:10.355Z,101520.00
2022-10-11T16:25:38.894Z,101521.00
2022-10-11T16:28:08.218Z,101525.00
2022-10-11T16:30:40.156Z,101523.00
2022-10-11T16:33:08.010Z,101515.00
2022-10-11T16:35:35.854Z,101522.00
2022-10-11T16:38:03.751Z,101524.00
2022-10-11T16:40:31.543Z,101527.00
2022-10-11T16:43:07.394Z,101529.00
2022-10-11T16:45:36.321Z,101532.00
2022-10-11T16:48:04.649Z,101529.00
2022-10-11T16:50:38.353Z,101537.00
2022-10-11T16:53:07.220Z,101532.00
2022-10-11T16:55:35.016Z,101532.00
2022-10-11T16:58:03.023Z,101527.00
2022-10-11T17:00:30.946Z,101532.00
2022-10-11T17:02:58.844Z,101532.00
2022-10-11T17:05:26.911Z,101533.00
2022-10-11T17:07:54.823Z,101529.00
2022-10-11T17:10:39.453Z,101533.00
2022-10-11T17:13:07.728Z,101531.00
2022-10-11T17:15:36.375Z,101526.00
2022-10-11T17:18:04.760Z,101527.00
2022-10-11T17:20:32.945Z,101527.00
2022-10-11T17:23:00.796Z,101526.00
2022-10-11T17:25:28.748Z,101528.00
2022-10-11T17:27:57.391Z,101529.00
2022-10-11T17:30:26.266Z,101528.00
2022-10-11T17:32:54.192Z,101534.00
2022-10-11T17:35:22.066Z,101527.00
2022-10-11T17:37:50.251Z,101536.00
2022-10-11T17:40:18.789Z,101537.00
2022-10-11T17:42:47.921Z,101532.00
2022-10-11T17:45:16.033Z,101538.00
2022-10-11T17:47:47.074Z,101545.00
2022-10-11T17:50:15.091Z,101541.00
2022-10-11T17:52:43.218Z,101532.00
2022-10-11T17:55:11.146Z,101529.00
2022-10-11T17:57:38.976Z,101531.00
2022-10-11T18:00:07.516Z,101532.00
2022-10-11T18:02:35.484Z,101527.00
2022-10-11T18:05:03.431Z,101530.00
2022-10-11T18:07:31.085Z,101525.00
2022-10-11T18:09:59.045Z,101522.00
2022-10-11T18:12:26.979Z,101515.00
2022-10-11T18:14:54.946Z,101519.00
2022-10-11T18:17:22.785Z,101521.00
2022-10-11T18:19:50.800Z,101518.00
2022-10-11T18:22:18.634Z,101515.00
2022-10-11T18:24:46.333Z,101514.00
2022-10-11T18:27:14.032Z,101508.00
2022-10-11T18:29:41.824Z,101518.00
2022-10-11T18:32:10.146Z,101519.00
2022-10-11T18:34:41.472Z,101510.00
2022-10-11T18:37:09.231Z,101517.00
2022-10-11T18:39:36.950Z,101506.00
2022-10-11T18:42:05.089Z,101511.00
2022-10-11T18:44:32.958Z,101511.00
2022-10-11T18:47:00.863Z,101509.00
2022-10-11T18:49:28.686Z,101510.00
2022-10-11T18:51:56.514Z,101504.00
2022-10-11T18:54:24.343Z,101506.00
2022-10-11T18:56:52.111Z,101503.00
2022-10-11T18:59:20.695Z,101496.00
2022-10-11T19:01:52.527Z,101504.00
2022-10-11T19:04:21.075Z,101507.00
2022-10-11T19:06:50.012Z,101498.00
2022-10-11T19:09:23.273Z,101505.00
2022-10-11T19:11:53.167Z,101508.00
2022-10-11T19:14:25.758Z,101510.00
2022-10-11T19:16:54.691Z,101499.00
2022-10-11T19:19:24.778Z,101500.00
2022-10-11T19:21:53.403Z,101502.00
2022-10-11T19:24:23.951Z,101504.00
2022-10-11T19:27:01.222Z,101504.00
2022-10-11T19:29:30.747Z,101499.00
2022-10-11T19:32:00.204Z,101505.00
2022-10-11T19:34:30.227Z,101494.00
2022-10-11T19:37:01.014Z,101499.00
2022-10-11T19:39:29.769Z,101494.00
2022-10-11T19:41:57.756Z,101494.00
2022-10-11T19:44:25.476Z,101497.00
2022-10-11T19:46:53.441Z,101494.00
2022-10-11T19:49:26.035Z,101494.00
2022-10-11T19:51:55.714Z,101492.00
2022-10-11T19:54:23.905Z,101488.00
2022-10-11T19:56:51.967Z,101493.00
2022-10-11T19:59:19.856Z,101495.00
2022-10-11T20:01:52.417Z,101497.00
2022-10-11T20:04:51.004Z,101489.00
2022-10-11T20:07:08.900Z,101503.00
2022-10-11T20:09:36.943Z,101495.00
2022-10-11T20:12:04.875Z,101498.00
2022-10-11T20:14:32.671Z,101494.00
2022-10-11T20:17:00.522Z,101498.00
2022-10-11T20:19:31.127Z,101488.00
2022-10-11T20:22:00.390Z,101499.00
2022-10-11T20:24:32.967Z,101494.00
2022-10-11T20:27:03.148Z,101489.00
2022-10-11T20:29:30.840Z,101494.00
2022-10-11T20:31:59.183Z,101495.00
2022-10-11T20:34:27.850Z,101493.00
2022-10-11T20:36:55.820Z,101489.00
2022-10-11T20:39:24.029Z,101502.00
2022-10-11T20:41:51.925Z,101494.00
2022-10-11T20:44:19.809Z,101495.00
2022-10-11T20:46:47.541Z,101496.00
2022-10-11T20:49:15.109Z,101496.00
2022-10-11T20:51:43.598Z,101495.00
2022-10-11T20:54:12.074Z,101488.00
2022-10-11T20:56:40.597Z,101488.00
2022-10-11T20:59:08.576Z,101489.00
2022-10-11T21:01:39.699Z,101490.00
2022-10-11T21:04:10.183Z,101480.00
2022-10-11T21:06:38.325Z,101487.00
2022-10-11T21:09:06.389Z,101485.00
2022-10-11T21:11:35.222Z,101488.00
2022-10-11T21:14:05.407Z,101493.00
2022-10-11T21:16:34.170Z,101496.00
2022-10-11T21:19:02.576Z,101490.00
2022-10-11T21:21:30.917Z,101495.00
2022-10-11T21:24:00.755Z,101500.00
2022-10-11T21:26:29.776Z,101497.00
2022-10-11T21:28:59.524Z,101500.00
2022-10-11T21:31:32.690Z,101492.00
2022-10-11T21:34:02.157Z,101494.00
2022-10-11T21:36:29.932Z,101495.00
2022-10-11T21:38:57.823Z,101494.00
2022-10-11T21:41:26.734Z,101496.00
2022-10-11T21:43:54.667Z,101497.00
2022-10-11T21:46:47.651Z,101494.00
2022-10-11T21:49:16.399Z,101491.00
2022-10-11T21:51:44.421Z,101494.00
2022-10-11T21:54:12.580Z,101499.00
2022-10-11T21:56:40.542Z,101496.00
2022-10-11T21:59:11.264Z,101497.00
2022-10-11T22:01:41.094Z,101496.00
2022-10-11T22:04:08.954Z,101493.00
2022-10-11T22:06:37.694Z,101491.00
2022-10-11T22:09:06.688Z,101495.00
2022-10-11T22:11:34.608Z,101491.00
2022-10-11T22:14:02.346Z,101494.00
2022-10-11T22:16:30.161Z,101484.00
2022-10-11T22:18:57.964Z,101487.00
2022-10-11T22:21:25.951Z,101484.00
2022-10-11T22:23:54.850Z,101489.00
2022-10-11T22:26:25.884Z,101483.00
2022-10-11T22:28:54.103Z,101488.00
2022-10-11T22:31:22.546Z,101483.00
2022-10-11T22:33:54.968Z,101490.00
2022-10-11T22:36:24.530Z,101488.00
2022-10-11T22:38:52.962Z,101486.00
2022-10-11T22:41:20.912Z,101488.00
2022-10-11T22:43:49.053Z,101490.00
2022-10-11T22:46:17.059Z,101473.00
2022-10-11T22:48:45.156Z,101480.00
2022-10-11T22:51:13.827Z,101472.00
2022-10-11T22:53:41.801Z,101474.00
2022-10-11T22:56:10.936Z,101475.00
2022-10-11T22:58:39.288Z,101474.00
2022-10-11T23:01:12.194Z,101476.00
2022-10-11T23:03:40.355Z,101468.00
2022-10-11T23:06:08.342Z,101474.00
2022-10-11T23:08:36.114Z,101465.00
2022-10-11T23:11:07.634Z,101467.00
2022-10-11T23:13:35.819Z,101468.00
2022-10-11T23:16:09.112Z,101468.00
2022-10-11T23:18:37.139Z,101470.00
2022-10-11T23:21:06.224Z,101472.00
2022-10-11T23:23:34.684Z,101472.00
2022-10-11T23:26:08.192Z,101479.00
2022-10-11T23:28:36.279Z,101473.00
2022-10-11T23:31:12.595Z,101476.00
2022-10-11T23:33:40.749Z,101476.00
2022-10-11T23:36:15.379Z,101474.00
2022-10-11T23:38:43.944Z,101476.00
2022-10-11T23:41:12.579Z,101479.00
2022-10-11T23:43:40.447Z,101476.00
2022-10-11T23:46:08.087Z,101477.00
2022-10-11T23:48:36.087Z,101479.00
2022-10-11T23:51:04.017Z,101491.00
2022-10-11T23:53:32.067Z,101480.00
2022-10-11T23:56:00.141Z,101489.00
2022-10-11T23:58:28.166Z,101494.00
